createdAt,value
2023-02-15T00:03:08.029Z,1.9
2023-02-15T00:13:07.981Z,1.9
2023-02-15T00:23:07.920Z,1.6
2023-02-15T00:33:07.957Z,1.5
2023-02-15T00:43:07.984Z,1.3
2023-02-15T00:53:07.908Z,1.2
2023-02-15T01:03:07.939Z,1
2023-02-15T01:13:07.933Z,0.8
2023-02-15T01:23:07.883Z,0.9
2023-02-15T01:33:07.925Z,1
2023-02-15T01:43:07.885Z,1
2023-02-15T01:53:07.857Z,1
2023-02-15T02:03:07.885Z,0.9
2023-02-15T02:13:07.873Z,0.7
2023-02-15T02:23:07.840Z,0.5
2023-02-15T02:33:07.836Z,0.3
2023-02-15T02:43:07.858Z,0.3
2023-02-15T02:53:07.799Z,0.3
2023-02-15T03:03:07.936Z,0.3
2023-02-15T03:13:07.808Z,0.1
2023-02-15T03:23:07.765Z,0
2023-02-15T03:33:07.790Z,-0.2
2023-02-15T03:43:07.801Z,-0.2
2023-02-15T03:53:07.773Z,-0.2
2023-02-15T04:03:07.878Z,-0.1
2023-02-15T04:13:07.774Z,-0.2
2023-02-15T04:23:07.744Z,-0.4
2023-02-15T04:33:07.750Z,-0.5
2023-02-15T04:43:07.732Z,-0.5
2023-02-15T04:53:07.706Z,-0.5
2023-02-15T05:03:07.738Z,-0.8
2023-02-15T05:13:07.737Z,-1.1
2023-02-15T05:23:07.674Z,-1
2023-02-15T05:33:07.707Z,-0.9
2023-02-15T05:43:07.709Z,-0.9
2023-02-15T05:53:07.675Z,-0.8
2023-02-15T06:03:07.741Z,-1
2023-02-15T06:13:07.684Z,-1.3
2023-02-15T06:23:07.659Z,-1.5
2023-02-15T06:33:07.686Z,-1.5
2023-02-15T06:43:07.689Z,-1.2
2023-02-15T06:53:07.627Z,-1.2
2023-02-15T07:03:07.646Z,-1.4
2023-02-15T07:13:07.660Z,-1.2
2023-02-15T07:23:07.620Z,-1.2
2023-02-15T07:33:07.645Z,-1.2
2023-02-15T07:43:07.623Z,-1.1
2023-02-15T07:53:07.568Z,-0.9
2023-02-15T08:03:07.668Z,-0.5
2023-02-15T08:13:07.603Z,0
2023-02-15T08:23:07.584Z,0.3
2023-02-15T08:33:07.598Z,0.8
2023-02-15T08:43:07.570Z,1.3
2023-02-15T08:53:07.534Z,1.7
2023-02-15T09:03:07.664Z,2.1
2023-02-15T09:13:07.502Z,2.5
2023-02-15T09:23:07.678Z,3.1
2023-02-15T09:33:07.498Z,3.5
2023-02-15T09:43:07.507Z,4.2
2023-02-15T09:53:07.481Z,4.6
2023-02-15T10:03:08.375Z,5.2
2023-02-15T10:13:07.513Z,7.4
2023-02-15T10:23:07.456Z,10.5
2023-02-15T10:33:07.476Z,12.1
2023-02-15T10:43:07.380Z,13.9
2023-02-15T10:53:07.385Z,15.4
2023-02-15T11:03:07.388Z,16.5
2023-02-15T11:13:07.357Z,17.8
2023-02-15T11:23:07.320Z,18.3
2023-02-15T11:33:07.338Z,18.5
2023-02-15T11:43:07.322Z,19.3
2023-02-15T11:53:07.250Z,19.8
2023-02-15T12:03:07.345Z,19.7
2023-02-15T12:13:07.305Z,19.4
2023-02-15T12:23:07.195Z,19.1
2023-02-15T12:33:07.206Z,19.3
2023-02-15T12:43:09.129Z,19.3
2023-02-15T12:53:07.147Z,19.1
2023-02-15T13:03:07.122Z,19.1
2023-02-15T13:13:07.121Z,19.2
2023-02-15T13:23:07.057Z,20.1
2023-02-15T13:33:07.080Z,19.9
2023-02-15T13:43:07.077Z,19.8
2023-02-15T13:53:07.129Z,19.6
2023-02-15T14:03:07.070Z,19.4
2023-02-15T14:13:06.973Z,19.1
2023-02-15T14:23:06.969Z,18.4
2023-02-15T14:33:06.942Z,18.3
2023-02-15T14:43:06.954Z,18.1
2023-02-15T14:53:06.889Z,18.1
2023-02-15T15:03:06.909Z,18.6
2023-02-15T15:13:06.858Z,18.7
2023-02-15T15:23:06.820Z,18.6
2023-02-15T15:33:06.807Z,19.3
2023-02-15T15:43:06.813Z,19.6
2023-02-15T15:53:06.751Z,19.3
2023-02-15T16:03:06.898Z,19.1
2023-02-15T16:13:06.740Z,18.5
2023-02-15T16:23:06.705Z,17.5
2023-02-15T16:33:06.700Z,16.7
2023-02-15T16:43:06.709Z,16
2023-02-15T16:53:06.623Z,15
2023-02-15T17:03:06.674Z,14
2023-02-15T17:13:06.638Z,13.2
2023-02-15T17:23:06.578Z,12.4
2023-02-15T17:33:06.589Z,11.7
2023-02-15T17:43:06.580Z,11.2
2023-02-15T17:53:06.525Z,10.7
2023-02-15T18:03:06.553Z,10.1
2023-02-15T18:13:06.508Z,9.8
2023-02-15T18:23:06.499Z,9.5
2023-02-15T18:33:06.477Z,9.3
2023-02-15T18:43:06.492Z,9.3
2023-02-15T18:53:06.431Z,9
2023-02-15T19:03:06.486Z,8.7
2023-02-15T19:13:06.401Z,8.4
2023-02-15T19:23:06.388Z,8.2
2023-02-15T19:33:06.411Z,7.9
2023-02-15T19:43:06.356Z,7.6
2023-02-15T19:53:06.327Z,7.4
2023-02-15T20:03:06.353Z,7.2
2023-02-15T20:13:06.361Z,7.1
2023-02-15T20:23:06.304Z,6.8
2023-02-15T20:33:06.306Z,6.7
2023-02-15T20:43:06.298Z,6.5
2023-02-15T20:53:06.252Z,6.5
2023-02-15T21:03:06.269Z,6.4
2023-02-15T21:13:06.351Z,6.3
2023-02-15T21:23:06.235Z,6.1
2023-02-15T21:33:06.219Z,5.9
2023-02-15T21:43:06.211Z,5.8
2023-02-15T21:53:06.172Z,5.6
2023-02-15T22:03:06.147Z,5.4
2023-02-15T22:13:06.240Z,5.1
2023-02-15T22:23:06.119Z,5
2023-02-15T22:33:06.157Z,4.9
2023-02-15T22:43:06.107Z,4.8
2023-02-15T22:53:06.091Z,4.6
2023-02-15T23:03:06.102Z,4.6
2023-02-15T23:13:06.063Z,4.4
2023-02-15T23:23:06.072Z,4.3
2023-02-15T23:33:06.028Z,4.3
2023-02-15T23:43:06.051Z,4
2023-02-15T23:53:06.028Z,3.9
